sensor_id;sensor_type;location;lat;lon;timestamp;P1;durP1;ratioP1;P2;durP2;ratioP2
23115;SDS011;11727;52.134;5.052;2023-01-28T00:01:49;7.90;;;3.25;;
23115;SDS011;11727;52.134;5.052;2023-01-28T00:04:15;8.98;;;4.13;;
23115;SDS011;11727;52.134;5.052;2023-01-28T00:06:41;6.13;;;3.15;;
23115;SDS011;11727;52.134;5.052;2023-01-28T00:09:06;6.35;;;3.42;;
23115;SDS011;11727;52.134;5.052;2023-01-28T00:11:32;8.27;;;3.10;;
23115;SDS011;11727;52.134;5.052;2023-01-28T00:13:58;6.25;;;3.25;;
23115;SDS011;11727;52.134;5.052;2023-01-28T00:16:23;6.47;;;2.80;;
23115;SDS011;11727;52.134;5.052;2023-01-28T00:18:53;10.00;;;3.47;;
23115;SDS011;11727;52.134;5.052;2023-01-28T00:21:18;7.18;;;2.83;;
23115;SDS011;11727;52.134;5.052;2023-01-28T00:23:47;9.00;;;3.45;;
23115;SDS011;11727;52.134;5.052;2023-01-28T00:26:16;7.95;;;3.65;;
23115;SDS011;11727;52.134;5.052;2023-01-28T00:28:42;6.90;;;3.20;;
23115;SDS011;11727;52.134;5.052;2023-01-28T00:31:09;7.82;;;3.50;;
23115;SDS011;11727;52.134;5.052;2023-01-28T00:33:38;6.03;;;2.97;;
23115;SDS011;11727;52.134;5.052;2023-01-28T00:36:04;6.60;;;3.00;;
23115;SDS011;11727;52.134;5.052;2023-01-28T00:38:30;5.97;;;2.93;;
23115;SDS011;11727;52.134;5.052;2023-01-28T00:41:05;7.35;;;3.25;;
23115;SDS011;11727;52.134;5.052;2023-01-28T00:43:32;6.30;;;2.85;;
23115;SDS011;11727;52.134;5.052;2023-01-28T00:45:57;5.38;;;2.78;;
23115;SDS011;11727;52.134;5.052;2023-01-28T00:48:23;8.38;;;3.70;;
23115;SDS011;11727;52.134;5.052;2023-01-28T00:50:49;7.47;;;3.35;;
23115;SDS011;11727;52.134;5.052;2023-01-28T00:53:14;6.82;;;3.20;;
23115;SDS011;11727;52.134;5.052;2023-01-28T00:55:41;8.70;;;3.47;;
23115;SDS011;11727;52.134;5.052;2023-01-28T00:58:06;5.60;;;3.00;;
23115;SDS011;11727;52.134;5.052;2023-01-28T01:00:32;8.23;;;3.45;;
23115;SDS011;11727;52.134;5.052;2023-01-28T01:02:58;6.18;;;3.10;;
23115;SDS011;11727;52.134;5.052;2023-01-28T01:05:23;6.35;;;3.20;;
23115;SDS011;11727;52.134;5.052;2023-01-28T01:07:49;7.55;;;3.28;;
23115;SDS011;11727;52.134;5.052;2023-01-28T01:10:15;7.45;;;3.65;;
23115;SDS011;11727;52.134;5.052;2023-01-28T01:12:42;7.68;;;3.15;;
23115;SDS011;11727;52.134;5.052;2023-01-28T01:15:10;7.88;;;3.47;;
23115;SDS011;11727;52.134;5.052;2023-01-28T01:17:37;7.28;;;3.38;;
23115;SDS011;11727;52.134;5.052;2023-01-28T01:20:04;7.53;;;3.42;;
23115;SDS011;11727;52.134;5.052;2023-01-28T01:22:32;6.45;;;3.00;;
23115;SDS011;11727;52.134;5.052;2023-01-28T01:24:58;6.80;;;3.00;;
23115;SDS011;11727;52.134;5.052;2023-01-28T01:27:24;9.00;;;3.97;;
23115;SDS011;11727;52.134;5.052;2023-01-28T01:29:50;6.38;;;3.22;;
23115;SDS011;11727;52.134;5.052;2023-01-28T01:32:15;6.10;;;3.03;;
23115;SDS011;11727;52.134;5.052;2023-01-28T01:34:42;6.72;;;3.30;;
23115;SDS011;11727;52.134;5.052;2023-01-28T01:37:08;7.18;;;3.08;;
23115;SDS011;11727;52.134;5.052;2023-01-28T01:39:34;7.47;;;3.33;;
23115;SDS011;11727;52.134;5.052;2023-01-28T01:42:00;6.53;;;3.45;;
23115;SDS011;11727;52.134;5.052;2023-01-28T01:47:21;6.25;;;3.08;;
23115;SDS011;11727;52.134;5.052;2023-01-28T01:49:51;11.25;;;3.72;;
23115;SDS011;11727;52.134;5.052;2023-01-28T01:52:18;6.82;;;3.13;;
23115;SDS011;11727;52.134;5.052;2023-01-28T01:54:50;7.45;;;2.88;;
23115;SDS011;11727;52.134;5.052;2023-01-28T01:57:21;6.65;;;3.40;;
23115;SDS011;11727;52.134;5.052;2023-01-28T01:59:51;5.57;;;2.47;;
23115;SDS011;11727;52.134;5.052;2023-01-28T02:02:18;7.73;;;3.40;;
23115;SDS011;11727;52.134;5.052;2023-01-28T02:04:44;6.60;;;3.47;;
23115;SDS011;11727;52.134;5.052;2023-01-28T02:07:10;7.55;;;3.28;;
23115;SDS011;11727;52.134;5.052;2023-01-28T02:09:38;11.15;;;3.58;;
23115;SDS011;11727;52.134;5.052;2023-01-28T02:12:09;4.43;;;2.85;;
23115;SDS011;11727;52.134;5.052;2023-01-28T02:14:40;7.32;;;3.28;;
23115;SDS011;11727;52.134;5.052;2023-01-28T02:17:09;6.28;;;3.45;;
23115;SDS011;11727;52.134;5.052;2023-01-28T02:19:36;8.73;;;3.55;;
23115;SDS011;11727;52.134;5.052;2023-01-28T02:25:20;8.60;;;3.72;;
23115;SDS011;11727;52.134;5.052;2023-01-28T02:28:26;9.40;;;3.45;;
23115;SDS011;11727;52.134;5.052;2023-01-28T02:30:56;6.10;;;2.95;;
23115;SDS011;11727;52.134;5.052;2023-01-28T02:39:24;7.15;;;3.00;;
23115;SDS011;11727;52.134;5.052;2023-01-28T02:44:45;9.70;;;3.50;;
23115;SDS011;11727;52.134;5.052;2023-01-28T02:47:11;6.97;;;3.25;;
23115;SDS011;11727;52.134;5.052;2023-01-28T02:49:56;4.78;;;2.45;;
23115;SDS011;11727;52.134;5.052;2023-01-28T03:00:49;8.75;;;3.42;;
23115;SDS011;11727;52.134;5.052;2023-01-28T03:03:33;8.13;;;3.20;;
23115;SDS011;11727;52.134;5.052;2023-01-28T03:06:12;5.53;;;2.58;;
23115;SDS011;11727;52.134;5.052;2023-01-28T03:08:43;5.22;;;3.00;;
23115;SDS011;11727;52.134;5.052;2023-01-28T03:11:36;7.15;;;2.85;;
23115;SDS011;11727;52.134;5.052;2023-01-28T03:14:24;6.65;;;2.78;;
23115;SDS011;11727;52.134;5.052;2023-01-28T03:17:11;5.72;;;2.75;;
23115;SDS011;11727;52.134;5.052;2023-01-28T03:20:01;6.35;;;3.35;;
23115;SDS011;11727;52.134;5.052;2023-01-28T03:22:46;5.57;;;3.08;;
23115;SDS011;11727;52.134;5.052;2023-01-28T03:25:36;5.35;;;2.72;;
23115;SDS011;11727;52.134;5.052;2023-01-28T03:28:24;8.88;;;3.72;;
23115;SDS011;11727;52.134;5.052;2023-01-28T03:31:11;6.22;;;3.03;;
23115;SDS011;11727;52.134;5.052;2023-01-28T03:33:57;7.68;;;2.85;;
23115;SDS011;11727;52.134;5.052;2023-01-28T03:36:43;7.40;;;3.30;;
23115;SDS011;11727;52.134;5.052;2023-01-28T03:39:24;6.57;;;3.05;;
23115;SDS011;11727;52.134;5.052;2023-01-28T03:42:05;7.03;;;3.33;;
23115;SDS011;11727;52.134;5.052;2023-01-28T03:44:32;5.95;;;2.95;;
23115;SDS011;11727;52.134;5.052;2023-01-28T03:47:22;5.25;;;3.05;;
23115;SDS011;11727;52.134;5.052;2023-01-28T03:49:49;7.03;;;3.33;;
23115;SDS011;11727;52.134;5.052;2023-01-28T03:52:17;5.25;;;2.78;;
23115;SDS011;11727;52.134;5.052;2023-01-28T03:54:50;7.43;;;3.13;;
23115;SDS011;11727;52.134;5.052;2023-01-28T03:57:18;6.90;;;3.08;;
23115;SDS011;11727;52.134;5.052;2023-01-28T03:59:45;6.88;;;3.55;;
23115;SDS011;11727;52.134;5.052;2023-01-28T04:02:13;9.30;;;3.58;;
23115;SDS011;11727;52.134;5.052;2023-01-28T04:04:41;6.05;;;2.92;;
23115;SDS011;11727;52.134;5.052;2023-01-28T04:07:07;6.53;;;3.60;;
23115;SDS011;11727;52.134;5.052;2023-01-28T04:09:39;6.60;;;2.90;;
23115;SDS011;11727;52.134;5.052;2023-01-28T04:12:06;9.33;;;3.67;;
23115;SDS011;11727;52.134;5.052;2023-01-28T04:14:31;6.22;;;3.10;;
23115;SDS011;11727;52.134;5.052;2023-01-28T04:16:57;6.55;;;3.22;;
23115;SDS011;11727;52.134;5.052;2023-01-28T04:19:23;8.95;;;3.58;;
23115;SDS011;11727;52.134;5.052;2023-01-28T04:21:50;5.70;;;2.63;;
23115;SDS011;11727;52.134;5.052;2023-01-28T04:24:18;6.82;;;3.30;;
23115;SDS011;11727;52.134;5.052;2023-01-28T04:26:44;8.07;;;3.67;;
23115;SDS011;11727;52.134;5.052;2023-01-28T04:29:09;8.68;;;3.63;;
23115;SDS011;11727;52.134;5.052;2023-01-28T04:31:35;7.68;;;3.08;;
23115;SDS011;11727;52.134;5.052;2023-01-28T04:34:01;7.65;;;3.30;;
23115;SDS011;11727;52.134;5.052;2023-01-28T04:36:26;5.97;;;3.00;;
23115;SDS011;11727;52.134;5.052;2023-01-28T04:38:52;7.45;;;3.55;;
23115;SDS011;11727;52.134;5.052;2023-01-28T04:41:18;6.28;;;3.35;;
23115;SDS011;11727;52.134;5.052;2023-01-28T04:43:44;7.40;;;2.95;;
23115;SDS011;11727;52.134;5.052;2023-01-28T04:46:09;7.43;;;3.17;;
23115;SDS011;11727;52.134;5.052;2023-01-28T04:48:35;8.68;;;4.45;;
23115;SDS011;11727;52.134;5.052;2023-01-28T04:51:01;7.05;;;3.10;;
23115;SDS011;11727;52.134;5.052;2023-01-28T04:53:27;8.23;;;3.75;;
23115;SDS011;11727;52.134;5.052;2023-01-28T04:55:54;7.63;;;3.93;;
23115;SDS011;11727;52.134;5.052;2023-01-28T04:58:19;6.00;;;3.25;;
23115;SDS011;11727;52.134;5.052;2023-01-28T05:00:45;6.75;;;2.95;;
23115;SDS011;11727;52.134;5.052;2023-01-28T05:03:11;7.72;;;4.10;;
23115;SDS011;11727;52.134;5.052;2023-01-28T05:05:37;7.25;;;3.67;;
23115;SDS011;11727;52.134;5.052;2023-01-28T05:08:03;7.88;;;3.50;;
23115;SDS011;11727;52.134;5.052;2023-01-28T05:10:28;7.80;;;4.28;;
23115;SDS011;11727;52.134;5.052;2023-01-28T05:12:54;6.20;;;2.92;;
23115;SDS011;11727;52.134;5.052;2023-01-28T05:15:20;5.43;;;3.20;;
23115;SDS011;11727;52.134;5.052;2023-01-28T05:17:45;6.35;;;3.45;;
23115;SDS011;11727;52.134;5.052;2023-01-28T05:20:12;8.18;;;2.92;;
23115;SDS011;11727;52.134;5.052;2023-01-28T05:22:38;5.53;;;2.97;;
23115;SDS011;11727;52.134;5.052;2023-01-28T05:25:05;6.43;;;3.03;;
23115;SDS011;11727;52.134;5.052;2023-01-28T05:27:32;7.47;;;3.27;;
23115;SDS011;11727;52.134;5.052;2023-01-28T05:29:58;6.00;;;3.05;;
23115;SDS011;11727;52.134;5.052;2023-01-28T05:32:24;5.63;;;2.75;;
23115;SDS011;11727;52.134;5.052;2023-01-28T05:34:50;10.30;;;2.95;;
23115;SDS011;11727;52.134;5.052;2023-01-28T05:37:15;6.47;;;2.78;;
23115;SDS011;11727;52.134;5.052;2023-01-28T05:39:41;5.65;;;3.42;;
23115;SDS011;11727;52.134;5.052;2023-01-28T05:42:07;6.22;;;3.08;;
23115;SDS011;11727;52.134;5.052;2023-01-28T05:44:33;4.88;;;2.58;;
23115;SDS011;11727;52.134;5.052;2023-01-28T05:46:58;6.63;;;2.78;;
23115;SDS011;11727;52.134;5.052;2023-01-28T05:49:24;5.75;;;2.92;;
23115;SDS011;11727;52.134;5.052;2023-01-28T05:51:50;6.68;;;3.00;;
23115;SDS011;11727;52.134;5.052;2023-01-28T05:54:16;5.63;;;3.05;;
23115;SDS011;11727;52.134;5.052;2023-01-28T05:56:42;6.32;;;3.10;;
23115;SDS011;11727;52.134;5.052;2023-01-28T05:59:11;7.22;;;3.42;;
23115;SDS011;11727;52.134;5.052;2023-01-28T06:01:37;6.03;;;3.30;;
23115;SDS011;11727;52.134;5.052;2023-01-28T06:04:03;10.70;;;3.42;;
23115;SDS011;11727;52.134;5.052;2023-01-28T06:06:28;9.90;;;3.70;;
23115;SDS011;11727;52.134;5.052;2023-01-28T06:08:54;7.78;;;3.80;;
23115;SDS011;11727;52.134;5.052;2023-01-28T06:11:20;6.95;;;3.38;;
23115;SDS011;11727;52.134;5.052;2023-01-28T06:13:45;7.35;;;3.20;;
23115;SDS011;11727;52.134;5.052;2023-01-28T06:16:11;9.43;;;3.72;;
23115;SDS011;11727;52.134;5.052;2023-01-28T06:18:37;7.55;;;3.47;;
23115;SDS011;11727;52.134;5.052;2023-01-28T06:21:02;6.82;;;3.30;;
23115;SDS011;11727;52.134;5.052;2023-01-28T06:23:28;8.30;;;3.70;;
23115;SDS011;11727;52.134;5.052;2023-01-28T06:25:54;4.85;;;2.92;;
23115;SDS011;11727;52.134;5.052;2023-01-28T06:28:21;7.72;;;3.33;;
23115;SDS011;11727;52.134;5.052;2023-01-28T06:30:47;5.57;;;2.85;;
23115;SDS011;11727;52.134;5.052;2023-01-28T06:33:13;8.85;;;3.80;;
23115;SDS011;11727;52.134;5.052;2023-01-28T06:35:39;6.20;;;3.15;;
23115;SDS011;11727;52.134;5.052;2023-01-28T06:38:05;5.45;;;2.90;;
23115;SDS011;11727;52.134;5.052;2023-01-28T06:40:31;5.53;;;2.83;;
23115;SDS011;11727;52.134;5.052;2023-01-28T06:42:56;5.68;;;3.03;;
23115;SDS011;11727;52.134;5.052;2023-01-28T06:45:22;7.47;;;3.10;;
23115;SDS011;11727;52.134;5.052;2023-01-28T06:47:48;8.70;;;3.40;;
23115;SDS011;11727;52.134;5.052;2023-01-28T06:50:13;5.38;;;3.30;;
23115;SDS011;11727;52.134;5.052;2023-01-28T06:52:39;9.15;;;3.83;;
23115;SDS011;11727;52.134;5.052;2023-01-28T06:55:05;7.85;;;3.58;;
23115;SDS011;11727;52.134;5.052;2023-01-28T06:57:31;7.90;;;3.28;;
23115;SDS011;11727;52.134;5.052;2023-01-28T06:59:57;9.07;;;4.32;;
23115;SDS011;11727;52.134;5.052;2023-01-28T07:02:22;7.80;;;3.60;;
23115;SDS011;11727;52.134;5.052;2023-01-28T07:04:48;7.20;;;3.30;;
23115;SDS011;11727;52.134;5.052;2023-01-28T07:07:14;8.20;;;4.13;;
23115;SDS011;11727;52.134;5.052;2023-01-28T07:09:39;8.30;;;3.42;;
23115;SDS011;11727;52.134;5.052;2023-01-28T07:12:05;7.22;;;3.47;;
23115;SDS011;11727;52.134;5.052;2023-01-28T07:14:31;7.70;;;3.42;;
23115;SDS011;11727;52.134;5.052;2023-01-28T07:16:56;7.85;;;3.53;;
23115;SDS011;11727;52.134;5.052;2023-01-28T07:19:22;9.13;;;3.85;;
23115;SDS011;11727;52.134;5.052;2023-01-28T07:21:48;8.75;;;3.65;;
23115;SDS011;11727;52.134;5.052;2023-01-28T07:24:13;8.63;;;4.53;;
23115;SDS011;11727;52.134;5.052;2023-01-28T07:26:39;8.55;;;3.63;;
23115;SDS011;11727;52.134;5.052;2023-01-28T07:29:04;8.57;;;3.80;;
23115;SDS011;11727;52.134;5.052;2023-01-28T07:31:30;9.02;;;3.33;;
23115;SDS011;11727;52.134;5.052;2023-01-28T07:33:56;8.43;;;3.90;;
23115;SDS011;11727;52.134;5.052;2023-01-28T07:36:21;4.75;;;2.75;;
23115;SDS011;11727;52.134;5.052;2023-01-28T07:38:47;7.00;;;3.08;;
23115;SDS011;11727;52.134;5.052;2023-01-28T07:41:12;6.22;;;3.00;;
23115;SDS011;11727;52.134;5.052;2023-01-28T07:43:38;4.15;;;2.10;;
23115;SDS011;11727;52.134;5.052;2023-01-28T07:46:04;5.63;;;2.50;;
23115;SDS011;11727;52.134;5.052;2023-01-28T07:48:29;6.03;;;2.97;;
23115;SDS011;11727;52.134;5.052;2023-01-28T07:50:57;5.13;;;2.38;;
23115;SDS011;11727;52.134;5.052;2023-01-28T07:53:23;5.78;;;2.75;;
23115;SDS011;11727;52.134;5.052;2023-01-28T07:55:49;7.63;;;3.47;;
23115;SDS011;11727;52.134;5.052;2023-01-28T07:58:15;8.70;;;3.35;;
23115;SDS011;11727;52.134;5.052;2023-01-28T08:00:40;7.90;;;2.88;;
23115;SDS011;11727;52.134;5.052;2023-01-28T08:03:09;10.25;;;3.90;;
23115;SDS011;11727;52.134;5.052;2023-01-28T08:05:39;8.77;;;3.15;;
23115;SDS011;11727;52.134;5.052;2023-01-28T08:08:09;6.82;;;3.17;;
23115;SDS011;11727;52.134;5.052;2023-01-28T08:10:36;7.55;;;3.13;;
23115;SDS011;11727;52.134;5.052;2023-01-28T08:13:02;8.13;;;3.40;;
23115;SDS011;11727;52.134;5.052;2023-01-28T08:15:28;5.95;;;2.65;;
23115;SDS011;11727;52.134;5.052;2023-01-28T08:17:55;6.78;;;3.08;;
23115;SDS011;11727;52.134;5.052;2023-01-28T08:20:22;7.80;;;3.47;;
23115;SDS011;11727;52.134;5.052;2023-01-28T08:22:48;5.55;;;2.50;;
23115;SDS011;11727;52.134;5.052;2023-01-28T08:25:14;12.88;;;2.97;;
23115;SDS011;11727;52.134;5.052;2023-01-28T08:27:40;6.70;;;2.65;;
23115;SDS011;11727;52.134;5.052;2023-01-28T08:30:06;6.68;;;2.72;;
23115;SDS011;11727;52.134;5.052;2023-01-28T08:32:33;5.65;;;2.80;;
23115;SDS011;11727;52.134;5.052;2023-01-28T08:34:59;4.97;;;2.67;;
23115;SDS011;11727;52.134;5.052;2023-01-28T08:37:24;5.97;;;2.25;;
23115;SDS011;11727;52.134;5.052;2023-01-28T08:39:50;5.88;;;2.33;;
23115;SDS011;11727;52.134;5.052;2023-01-28T08:42:15;5.38;;;2.33;;
23115;SDS011;11727;52.134;5.052;2023-01-28T08:44:41;5.32;;;2.70;;
23115;SDS011;11727;52.134;5.052;2023-01-28T08:47:07;4.90;;;2.00;;
23115;SDS011;11727;52.134;5.052;2023-01-28T08:49:32;5.47;;;2.85;;
23115;SDS011;11727;52.134;5.052;2023-01-28T08:51:58;7.38;;;3.40;;
23115;SDS011;11727;52.134;5.052;2023-01-28T08:54:24;8.15;;;3.08;;
23115;SDS011;11727;52.134;5.052;2023-01-28T08:56:49;9.43;;;3.05;;
23115;SDS011;11727;52.134;5.052;2023-01-28T08:59:15;4.90;;;2.47;;
23115;SDS011;11727;52.134;5.052;2023-01-28T09:01:41;5.90;;;2.60;;
23115;SDS011;11727;52.134;5.052;2023-01-28T09:04:07;5.40;;;2.40;;
23115;SDS011;11727;52.134;5.052;2023-01-28T09:06:33;7.00;;;2.35;;
23115;SDS011;11727;52.134;5.052;2023-01-28T09:08:59;4.10;;;2.10;;
23115;SDS011;11727;52.134;5.052;2023-01-28T09:11:24;4.63;;;2.03;;
23115;SDS011;11727;52.134;5.052;2023-01-28T09:13:51;5.20;;;1.73;;
23115;SDS011;11727;52.134;5.052;2023-01-28T09:16:16;6.07;;;2.63;;
23115;SDS011;11727;52.134;5.052;2023-01-28T09:18:42;4.13;;;2.30;;
23115;SDS011;11727;52.134;5.052;2023-01-28T09:21:08;4.13;;;2.05;;
23115;SDS011;11727;52.134;5.052;2023-01-28T09:23:34;2.58;;;1.63;;
23115;SDS011;11727;52.134;5.052;2023-01-28T09:26:02;5.40;;;1.90;;
23115;SDS011;11727;52.134;5.052;2023-01-28T09:28:31;4.22;;;1.55;;
23115;SDS011;11727;52.134;5.052;2023-01-28T09:31:07;2.28;;;1.08;;
23115;SDS011;11727;52.134;5.052;2023-01-28T09:33:35;8.18;;;2.55;;
23115;SDS011;11727;52.134;5.052;2023-01-28T09:36:03;2.75;;;1.65;;
23115;SDS011;11727;52.134;5.052;2023-01-28T09:38:30;2.53;;;1.60;;
23115;SDS011;11727;52.134;5.052;2023-01-28T09:40:56;5.27;;;1.50;;
23115;SDS011;11727;52.134;5.052;2023-01-28T09:46:18;5.20;;;2.20;;
23115;SDS011;11727;52.134;5.052;2023-01-28T09:48:48;2.03;;;1.20;;
23115;SDS011;11727;52.134;5.052;2023-01-28T09:51:31;1.67;;;1.00;;
23115;SDS011;11727;52.134;5.052;2023-01-28T09:54:02;2.47;;;1.30;;
23115;SDS011;11727;52.134;5.052;2023-01-28T09:56:39;3.10;;;1.48;;
23115;SDS011;11727;52.134;5.052;2023-01-28T10:01:52;1.50;;;0.80;;
23115;SDS011;11727;52.134;5.052;2023-01-28T10:04:27;1.60;;;0.95;;
23115;SDS011;11727;52.134;5.052;2023-01-28T10:07:22;1.98;;;0.90;;
23115;SDS011;11727;52.134;5.052;2023-01-28T10:13:39;1.85;;;0.93;;
23115;SDS011;11727;52.134;5.052;2023-01-28T10:19:02;2.50;;;1.08;;
23115;SDS011;11727;52.134;5.052;2023-01-28T10:21:42;1.70;;;0.80;;
23115;SDS011;11727;52.134;5.052;2023-01-28T10:24:18;1.80;;;1.10;;
23115;SDS011;11727;52.134;5.052;2023-01-28T10:26:54;1.63;;;0.90;;
23115;SDS011;11727;52.134;5.052;2023-01-28T10:29:22;5.20;;;1.25;;
23115;SDS011;11727;52.134;5.052;2023-01-28T10:31:54;2.28;;;0.95;;
23115;SDS011;11727;52.134;5.052;2023-01-28T10:34:28;2.38;;;1.08;;
23115;SDS011;11727;52.134;5.052;2023-01-28T10:36:54;3.25;;;1.30;;
23115;SDS011;11727;52.134;5.052;2023-01-28T10:39:21;2.03;;;1.02;;
23115;SDS011;11727;52.134;5.052;2023-01-28T10:41:49;1.75;;;0.68;;
23115;SDS011;11727;52.134;5.052;2023-01-28T10:44:16;2.58;;;1.08;;
23115;SDS011;11727;52.134;5.052;2023-01-28T10:47:00;4.68;;;1.88;;
23115;SDS011;11727;52.134;5.052;2023-01-28T10:49:28;1.35;;;0.88;;
23115;SDS011;11727;52.134;5.052;2023-01-28T10:51:55;2.67;;;1.25;;
23115;SDS011;11727;52.134;5.052;2023-01-28T10:56:49;2.23;;;1.20;;
23115;SDS011;11727;52.134;5.052;2023-01-28T10:59:25;1.95;;;0.93;;
23115;SDS011;11727;52.134;5.052;2023-01-28T11:01:56;1.42;;;1.05;;
23115;SDS011;11727;52.134;5.052;2023-01-28T11:04:23;3.60;;;1.67;;
23115;SDS011;11727;52.134;5.052;2023-01-28T11:09:56;3.47;;;1.52;;
23115;SDS011;11727;52.134;5.052;2023-01-28T11:12:27;3.30;;;1.40;;
23115;SDS011;11727;52.134;5.052;2023-01-28T11:14:58;2.35;;;1.42;;
23115;SDS011;11727;52.134;5.052;2023-01-28T11:17:31;2.35;;;1.20;;
23115;SDS011;11727;52.134;5.052;2023-01-28T11:20:16;2.00;;;1.17;;
23115;SDS011;11727;52.134;5.052;2023-01-28T11:22:55;3.80;;;1.27;;
23115;SDS011;11727;52.134;5.052;2023-01-28T11:25:34;3.40;;;1.60;;
23115;SDS011;11727;52.134;5.052;2023-01-28T11:28:18;2.15;;;1.08;;
23115;SDS011;11727;52.134;5.052;2023-01-28T11:30:49;1.92;;;0.88;;
23115;SDS011;11727;52.134;5.052;2023-01-28T11:33:41;2.33;;;1.23;;
23115;SDS011;11727;52.134;5.052;2023-01-28T11:38:55;6.85;;;1.40;;
23115;SDS011;11727;52.134;5.052;2023-01-28T11:41:46;2.45;;;1.15;;
23115;SDS011;11727;52.134;5.052;2023-01-28T11:44:16;3.15;;;1.00;;
23115;SDS011;11727;52.134;5.052;2023-01-28T11:55:23;2.17;;;0.98;;
23115;SDS011;11727;52.134;5.052;2023-01-28T11:58:16;4.30;;;1.40;;
23115;SDS011;11727;52.134;5.052;2023-01-28T12:25:34;2.30;;;1.33;;
23115;SDS011;11727;52.134;5.052;2023-01-28T12:36:32;4.78;;;1.00;;
23115;SDS011;11727;52.134;5.052;2023-01-28T12:42:14;1.98;;;0.85;;
23115;SDS011;11727;52.134;5.052;2023-01-28T12:44:27;2.08;;;0.90;;
23115;SDS011;11727;52.134;5.052;2023-01-28T12:47:09;0.57;;;0.43;;
23115;SDS011;11727;52.134;5.052;2023-01-28T12:49:51;1.95;;;0.60;;
23115;SDS011;11727;52.134;5.052;2023-01-28T12:58:32;2.15;;;0.70;;
23115;SDS011;11727;52.134;5.052;2023-01-28T13:01:41;1.90;;;0.70;;
23115;SDS011;11727;52.134;5.052;2023-01-28T13:09:19;1.35;;;0.60;;
23115;SDS011;11727;52.134;5.052;2023-01-28T13:11:49;2.00;;;1.23;;
23115;SDS011;11727;52.134;5.052;2023-01-28T13:14:17;1.10;;;0.63;;
23115;SDS011;11727;52.134;5.052;2023-01-28T13:16:51;1.23;;;0.70;;
23115;SDS011;11727;52.134;5.052;2023-01-28T13:19:21;1.35;;;0.70;;
23115;SDS011;11727;52.134;5.052;2023-01-28T13:21:54;1.77;;;0.95;;
23115;SDS011;11727;52.134;5.052;2023-01-28T13:24:22;2.13;;;1.25;;
23115;SDS011;11727;52.134;5.052;2023-01-28T13:29:37;3.13;;;1.38;;
23115;SDS011;11727;52.134;5.052;2023-01-28T13:32:24;2.90;;;1.10;;
23115;SDS011;11727;52.134;5.052;2023-01-28T13:35:03;2.50;;;1.38;;
23115;SDS011;11727;52.134;5.052;2023-01-28T13:37:32;2.25;;;1.23;;
23115;SDS011;11727;52.134;5.052;2023-01-28T13:40:16;2.67;;;1.02;;
23115;SDS011;11727;52.134;5.052;2023-01-28T13:42:58;2.70;;;1.10;;
23115;SDS011;11727;52.134;5.052;2023-01-28T13:45:30;1.52;;;0.93;;
23115;SDS011;11727;52.134;5.052;2023-01-28T13:51:32;2.75;;;1.45;;
23115;SDS011;11727;52.134;5.052;2023-01-28T13:54:02;2.78;;;1.08;;
23115;SDS011;11727;52.134;5.052;2023-01-28T13:59:32;5.78;;;1.45;;
23115;SDS011;11727;52.134;5.052;2023-01-28T14:10:26;2.60;;;1.50;;
23115;SDS011;11727;52.134;5.052;2023-01-28T14:13:20;2.75;;;1.13;;
23115;SDS011;11727;52.134;5.052;2023-01-28T15:02:17;5.80;;;2.20;;
23115;SDS011;11727;52.134;5.052;2023-01-28T15:04:44;5.53;;;1.83;;
23115;SDS011;11727;52.134;5.052;2023-01-28T15:07:20;5.55;;;2.63;;
23115;SDS011;11727;52.134;5.052;2023-01-28T15:12:42;3.60;;;1.80;;
23115;SDS011;11727;52.134;5.052;2023-01-28T15:15:28;7.20;;;2.85;;
23115;SDS011;11727;52.134;5.052;2023-01-28T15:18:01;7.53;;;2.70;;
23115;SDS011;11727;52.134;5.052;2023-01-28T15:20:31;4.80;;;1.80;;
23115;SDS011;11727;52.134;5.052;2023-01-28T15:22:57;4.95;;;1.73;;
23115;SDS011;11727;52.134;5.052;2023-01-28T15:25:25;6.15;;;2.78;;
23115;SDS011;11727;52.134;5.052;2023-01-28T15:27:53;2.85;;;1.63;;
23115;SDS011;11727;52.134;5.052;2023-01-28T15:30:27;4.63;;;1.92;;
23115;SDS011;11727;52.134;5.052;2023-01-28T15:33:02;3.60;;;1.67;;
23115;SDS011;11727;52.134;5.052;2023-01-28T15:35:29;5.70;;;2.47;;
23115;SDS011;11727;52.134;5.052;2023-01-28T15:37:55;3.60;;;1.65;;
23115;SDS011;11727;52.134;5.052;2023-01-28T15:40:21;4.25;;;1.80;;
23115;SDS011;11727;52.134;5.052;2023-01-28T15:42:50;5.53;;;2.15;;
23115;SDS011;11727;52.134;5.052;2023-01-28T15:45:18;4.13;;;1.63;;
23115;SDS011;11727;52.134;5.052;2023-01-28T15:47:46;4.00;;;1.90;;
23115;SDS011;11727;52.134;5.052;2023-01-28T15:52:47;8.95;;;3.03;;
23115;SDS011;11727;52.134;5.052;2023-01-28T15:55:28;6.47;;;3.35;;
23115;SDS011;11727;52.134;5.052;2023-01-28T15:58:08;4.35;;;2.50;;
23115;SDS011;11727;52.134;5.052;2023-01-28T16:00:41;9.00;;;2.20;;
23115;SDS011;11727;52.134;5.052;2023-01-28T16:03:07;7.47;;;2.30;;
23115;SDS011;11727;52.134;5.052;2023-01-28T16:05:40;5.03;;;2.42;;
23115;SDS011;11727;52.134;5.052;2023-01-28T16:08:08;3.95;;;1.80;;
23115;SDS011;11727;52.134;5.052;2023-01-28T16:10:44;8.00;;;2.10;;
23115;SDS011;11727;52.134;5.052;2023-01-28T16:13:21;4.07;;;1.83;;
23115;SDS011;11727;52.134;5.052;2023-01-28T16:15:52;5.07;;;2.10;;
23115;SDS011;11727;52.134;5.052;2023-01-28T16:18:25;3.63;;;2.10;;
23115;SDS011;11727;52.134;5.052;2023-01-28T16:21:01;6.82;;;1.98;;
23115;SDS011;11727;52.134;5.052;2023-01-28T16:23:28;8.50;;;2.55;;
23115;SDS011;11727;52.134;5.052;2023-01-28T16:25:58;3.55;;;1.73;;
23115;SDS011;11727;52.134;5.052;2023-01-28T16:28:25;4.35;;;2.08;;
23115;SDS011;11727;52.134;5.052;2023-01-28T16:30:53;4.53;;;2.08;;
23115;SDS011;11727;52.134;5.052;2023-01-28T16:33:19;5.88;;;2.53;;
23115;SDS011;11727;52.134;5.052;2023-01-28T16:35:46;9.57;;;4.22;;
23115;SDS011;11727;52.134;5.052;2023-01-28T16:38:12;12.18;;;2.65;;
23115;SDS011;11727;52.134;5.052;2023-01-28T16:40:41;5.25;;;2.65;;
23115;SDS011;11727;52.134;5.052;2023-01-28T16:43:10;7.33;;;3.00;;
23115;SDS011;11727;52.134;5.052;2023-01-28T16:45:37;5.35;;;3.22;;
23115;SDS011;11727;52.134;5.052;2023-01-28T16:48:03;5.35;;;2.30;;
23115;SDS011;11727;52.134;5.052;2023-01-28T16:50:30;5.70;;;2.92;;
23115;SDS011;11727;52.134;5.052;2023-01-28T16:52:56;5.80;;;2.45;;
23115;SDS011;11727;52.134;5.052;2023-01-28T16:55:22;6.07;;;2.78;;
23115;SDS011;11727;52.134;5.052;2023-01-28T16:57:49;10.18;;;2.92;;
23115;SDS011;11727;52.134;5.052;2023-01-28T17:02:44;11.40;;;3.92;;
23115;SDS011;11727;52.134;5.052;2023-01-28T17:05:10;5.85;;;3.15;;
23115;SDS011;11727;52.134;5.052;2023-01-28T17:07:36;8.85;;;4.00;;
23115;SDS011;11727;52.134;5.052;2023-01-28T17:10:02;7.10;;;2.40;;
23115;SDS011;11727;52.134;5.052;2023-01-28T17:12:29;9.93;;;3.13;;
23115;SDS011;11727;52.134;5.052;2023-01-28T17:14:54;6.93;;;3.30;;
23115;SDS011;11727;52.134;5.052;2023-01-28T17:17:20;8.02;;;3.47;;
23115;SDS011;11727;52.134;5.052;2023-01-28T17:19:46;7.05;;;2.92;;
23115;SDS011;11727;52.134;5.052;2023-01-28T17:22:11;9.50;;;3.55;;
23115;SDS011;11727;52.134;5.052;2023-01-28T17:24:37;6.03;;;2.83;;
23115;SDS011;11727;52.134;5.052;2023-01-28T17:27:03;10.02;;;3.55;;
23115;SDS011;11727;52.134;5.052;2023-01-28T17:29:29;11.65;;;4.07;;
23115;SDS011;11727;52.134;5.052;2023-01-28T17:31:55;8.30;;;3.88;;
23115;SDS011;11727;52.134;5.052;2023-01-28T17:34:20;7.13;;;3.92;;
23115;SDS011;11727;52.134;5.052;2023-01-28T17:36:46;7.35;;;3.33;;
23115;SDS011;11727;52.134;5.052;2023-01-28T17:39:12;8.82;;;3.30;;
23115;SDS011;11727;52.134;5.052;2023-01-28T17:41:37;11.60;;;3.08;;
23115;SDS011;11727;52.134;5.052;2023-01-28T17:44:03;8.80;;;3.45;;
23115;SDS011;11727;52.134;5.052;2023-01-28T17:46:29;7.85;;;2.92;;
23115;SDS011;11727;52.134;5.052;2023-01-28T17:48:55;5.97;;;2.47;;
23115;SDS011;11727;52.134;5.052;2023-01-28T17:51:21;7.65;;;3.50;;
23115;SDS011;11727;52.134;5.052;2023-01-28T17:53:50;6.90;;;3.22;;